sensor_id;sensor_type;location;lat;lon;timestamp;P1;durP1;ratioP1;P2;durP2;ratioP2
68944;SDS011;55984;48.790;8.990;2023-04-03T00:01:34;10.07;;;5.70;;
68944;SDS011;55984;48.790;8.990;2023-04-03T00:04:00;9.40;;;5.23;;
68944;SDS011;55984;48.790;8.990;2023-04-03T00:06:26;9.70;;;5.40;;
68944;SDS011;55984;48.790;8.990;2023-04-03T00:08:52;9.37;;;4.90;;
68944;SDS011;55984;48.790;8.990;2023-04-03T00:11:19;10.33;;;5.10;;
68944;SDS011;55984;48.790;8.990;2023-04-03T00:13:45;9.70;;;5.63;;
68944;SDS011;55984;48.790;8.990;2023-04-03T00:16:11;8.63;;;5.13;;
68944;SDS011;55984;48.790;8.990;2023-04-03T00:18:38;10.53;;;5.57;;
68944;SDS011;55984;48.790;8.990;2023-04-03T00:21:05;12.63;;;5.73;;
68944;SDS011;55984;48.790;8.990;2023-04-03T00:23:49;8.63;;;4.70;;
68944;SDS011;55984;48.790;8.990;2023-04-03T00:26:17;10.33;;;4.60;;
68944;SDS011;55984;48.790;8.990;2023-04-03T00:28:43;9.73;;;5.10;;
68944;SDS011;55984;48.790;8.990;2023-04-03T00:31:09;9.97;;;5.20;;
68944;SDS011;55984;48.790;8.990;2023-04-03T00:33:36;8.83;;;5.03;;
68944;SDS011;55984;48.790;8.990;2023-04-03T00:36:09;12.10;;;5.17;;
68944;SDS011;55984;48.790;8.990;2023-04-03T00:38:40;10.40;;;5.23;;
68944;SDS011;55984;48.790;8.990;2023-04-03T00:41:06;11.43;;;5.70;;
68944;SDS011;55984;48.790;8.990;2023-04-03T00:43:32;8.70;;;5.13;;
68944;SDS011;55984;48.790;8.990;2023-04-03T00:45:59;11.47;;;5.77;;
68944;SDS011;55984;48.790;8.990;2023-04-03T00:51:24;11.87;;;5.87;;
68944;SDS011;55984;48.790;8.990;2023-04-03T00:53:55;10.20;;;5.37;;
68944;SDS011;55984;48.790;8.990;2023-04-03T00:56:25;11.80;;;6.00;;
68944;SDS011;55984;48.790;8.990;2023-04-03T00:58:55;11.07;;;5.77;;
68944;SDS011;55984;48.790;8.990;2023-04-03T01:01:55;9.13;;;5.53;;
68944;SDS011;55984;48.790;8.990;2023-04-03T01:07:02;12.17;;;6.50;;
68944;SDS011;55984;48.790;8.990;2023-04-03T01:09:32;13.67;;;5.50;;
68944;SDS011;55984;48.790;8.990;2023-04-03T01:12:19;9.83;;;5.87;;
68944;SDS011;55984;48.790;8.990;2023-04-03T01:15:09;9.73;;;5.63;;
68944;SDS011;55984;48.790;8.990;2023-04-03T01:17:46;11.03;;;5.97;;
68944;SDS011;55984;48.790;8.990;2023-04-03T01:25:47;11.00;;;5.57;;
68944;SDS011;55984;48.790;8.990;2023-04-03T01:28:34;9.83;;;6.07;;
68944;SDS011;55984;48.790;8.990;2023-04-03T01:33:40;10.43;;;6.07;;
68944;SDS011;55984;48.790;8.990;2023-04-03T01:38:56;12.17;;;5.70;;
68944;SDS011;55984;48.790;8.990;2023-04-03T01:41:24;10.27;;;6.00;;
68944;SDS011;55984;48.790;8.990;2023-04-03T01:47:02;12.27;;;6.30;;
68944;SDS011;55984;48.790;8.990;2023-04-03T01:49:32;9.47;;;5.30;;
68944;SDS011;55984;48.790;8.990;2023-04-03T01:51:58;11.13;;;5.97;;
68944;SDS011;55984;48.790;8.990;2023-04-03T01:54:24;11.50;;;6.17;;
68944;SDS011;55984;48.790;8.990;2023-04-03T01:59:21;11.10;;;5.73;;
68944;SDS011;55984;48.790;8.990;2023-04-03T02:01:48;12.43;;;6.20;;
68944;SDS011;55984;48.790;8.990;2023-04-03T02:04:14;11.53;;;6.50;;
68944;SDS011;55984;48.790;8.990;2023-04-03T02:06:40;11.07;;;6.00;;
68944;SDS011;55984;48.790;8.990;2023-04-03T02:09:06;12.83;;;6.50;;
68944;SDS011;55984;48.790;8.990;2023-04-03T02:11:32;16.57;;;6.00;;
68944;SDS011;55984;48.790;8.990;2023-04-03T02:13:58;11.07;;;6.30;;
68944;SDS011;55984;48.790;8.990;2023-04-03T02:16:33;12.03;;;5.67;;
68944;SDS011;55984;48.790;8.990;2023-04-03T02:19:10;10.50;;;6.07;;
68944;SDS011;55984;48.790;8.990;2023-04-03T02:21:36;9.10;;;5.47;;
68944;SDS011;55984;48.790;8.990;2023-04-03T02:26:48;11.87;;;6.27;;
68944;SDS011;55984;48.790;8.990;2023-04-03T02:29:18;14.90;;;6.47;;
68944;SDS011;55984;48.790;8.990;2023-04-03T02:31:44;11.97;;;5.70;;
68944;SDS011;55984;48.790;8.990;2023-04-03T02:34:11;11.67;;;6.03;;
68944;SDS011;55984;48.790;8.990;2023-04-03T02:36:37;11.50;;;6.03;;
68944;SDS011;55984;48.790;8.990;2023-04-03T02:39:03;10.97;;;6.30;;
68944;SDS011;55984;48.790;8.990;2023-04-03T02:41:30;10.17;;;5.93;;
68944;SDS011;55984;48.790;8.990;2023-04-03T02:44:03;11.47;;;6.20;;
68944;SDS011;55984;48.790;8.990;2023-04-03T02:46:30;9.07;;;5.57;;
68944;SDS011;55984;48.790;8.990;2023-04-03T02:48:57;11.27;;;6.40;;
68944;SDS011;55984;48.790;8.990;2023-04-03T02:51:23;12.17;;;6.53;;
68944;SDS011;55984;48.790;8.990;2023-04-03T02:53:51;15.97;;;6.07;;
68944;SDS011;55984;48.790;8.990;2023-04-03T02:56:17;16.50;;;6.20;;
68944;SDS011;55984;48.790;8.990;2023-04-03T02:58:46;12.20;;;6.60;;
68944;SDS011;55984;48.790;8.990;2023-04-03T03:01:12;17.90;;;6.13;;
68944;SDS011;55984;48.790;8.990;2023-04-03T03:03:39;11.10;;;6.70;;
68944;SDS011;55984;48.790;8.990;2023-04-03T03:06:10;12.33;;;6.33;;
68944;SDS011;55984;48.790;8.990;2023-04-03T03:08:38;11.40;;;6.10;;
68944;SDS011;55984;48.790;8.990;2023-04-03T03:11:08;10.67;;;6.40;;
68944;SDS011;55984;48.790;8.990;2023-04-03T03:13:35;13.50;;;6.07;;
68944;SDS011;55984;48.790;8.990;2023-04-03T03:16:05;12.53;;;6.37;;
68944;SDS011;55984;48.790;8.990;2023-04-03T03:18:31;11.43;;;6.00;;
68944;SDS011;55984;48.790;8.990;2023-04-03T03:20:58;12.40;;;6.00;;
68944;SDS011;55984;48.790;8.990;2023-04-03T03:23:26;9.97;;;5.90;;
68944;SDS011;55984;48.790;8.990;2023-04-03T03:25:54;10.10;;;6.13;;
68944;SDS011;55984;48.790;8.990;2023-04-03T03:28:21;12.37;;;6.40;;
68944;SDS011;55984;48.790;8.990;2023-04-03T03:30:49;12.70;;;6.40;;
68944;SDS011;55984;48.790;8.990;2023-04-03T03:33:17;10.00;;;6.00;;
68944;SDS011;55984;48.790;8.990;2023-04-03T03:35:43;10.80;;;6.40;;
68944;SDS011;55984;48.790;8.990;2023-04-03T03:38:09;11.47;;;6.07;;
68944;SDS011;55984;48.790;8.990;2023-04-03T03:40:37;12.43;;;5.70;;
68944;SDS011;55984;48.790;8.990;2023-04-03T03:43:03;12.50;;;5.90;;
68944;SDS011;55984;48.790;8.990;2023-04-03T03:45:32;12.33;;;5.77;;
68944;SDS011;55984;48.790;8.990;2023-04-03T03:47:58;10.90;;;5.50;;
68944;SDS011;55984;48.790;8.990;2023-04-03T03:50:25;10.70;;;5.80;;
68944;SDS011;55984;48.790;8.990;2023-04-03T03:52:50;9.90;;;5.47;;
68944;SDS011;55984;48.790;8.990;2023-04-03T03:55:16;11.93;;;5.20;;
68944;SDS011;55984;48.790;8.990;2023-04-03T03:57:42;10.60;;;5.73;;
68944;SDS011;55984;48.790;8.990;2023-04-03T04:00:09;10.80;;;5.57;;
68944;SDS011;55984;48.790;8.990;2023-04-03T04:02:35;8.17;;;5.10;;
68944;SDS011;55984;48.790;8.990;2023-04-03T04:05:01;9.10;;;5.00;;
68944;SDS011;55984;48.790;8.990;2023-04-03T04:07:28;11.00;;;5.10;;
68944;SDS011;55984;48.790;8.990;2023-04-03T04:09:54;9.50;;;5.47;;
68944;SDS011;55984;48.790;8.990;2023-04-03T04:12:20;8.10;;;5.00;;
68944;SDS011;55984;48.790;8.990;2023-04-03T04:14:46;11.07;;;5.00;;
68944;SDS011;55984;48.790;8.990;2023-04-03T04:17:13;10.23;;;5.40;;
68944;SDS011;55984;48.790;8.990;2023-04-03T04:19:39;10.00;;;5.27;;
68944;SDS011;55984;48.790;8.990;2023-04-03T04:22:05;10.30;;;5.27;;
68944;SDS011;55984;48.790;8.990;2023-04-03T04:24:31;8.77;;;4.87;;
68944;SDS011;55984;48.790;8.990;2023-04-03T04:26:57;9.63;;;5.40;;
68944;SDS011;55984;48.790;8.990;2023-04-03T04:29:24;9.10;;;5.63;;
68944;SDS011;55984;48.790;8.990;2023-04-03T04:31:50;7.93;;;5.27;;
68944;SDS011;55984;48.790;8.990;2023-04-03T04:34:16;9.13;;;5.10;;
68944;SDS011;55984;48.790;8.990;2023-04-03T04:36:41;8.47;;;5.40;;
68944;SDS011;55984;48.790;8.990;2023-04-03T04:39:07;11.70;;;6.10;;
68944;SDS011;55984;48.790;8.990;2023-04-03T04:41:33;10.57;;;4.83;;
68944;SDS011;55984;48.790;8.990;2023-04-03T04:43:59;9.53;;;5.77;;
68944;SDS011;55984;48.790;8.990;2023-04-03T04:46:26;14.00;;;5.57;;
68944;SDS011;55984;48.790;8.990;2023-04-03T04:48:52;9.40;;;5.30;;
68944;SDS011;55984;48.790;8.990;2023-04-03T04:51:18;8.97;;;5.30;;
68944;SDS011;55984;48.790;8.990;2023-04-03T04:53:44;9.70;;;5.50;;
68944;SDS011;55984;48.790;8.990;2023-04-03T04:56:10;9.43;;;5.20;;
68944;SDS011;55984;48.790;8.990;2023-04-03T04:58:36;10.10;;;5.30;;
68944;SDS011;55984;48.790;8.990;2023-04-03T05:01:04;8.30;;;5.00;;
68944;SDS011;55984;48.790;8.990;2023-04-03T05:03:32;9.73;;;5.47;;
68944;SDS011;55984;48.790;8.990;2023-04-03T05:05:58;11.30;;;5.97;;
68944;SDS011;55984;48.790;8.990;2023-04-03T05:08:46;8.77;;;5.30;;
68944;SDS011;55984;48.790;8.990;2023-04-03T05:11:36;8.40;;;5.27;;
68944;SDS011;55984;48.790;8.990;2023-04-03T05:14:06;13.83;;;4.90;;
68944;SDS011;55984;48.790;8.990;2023-04-03T05:16:32;10.40;;;5.60;;
68944;SDS011;55984;48.790;8.990;2023-04-03T05:18:59;8.90;;;5.40;;
68944;SDS011;55984;48.790;8.990;2023-04-03T05:21:25;9.83;;;5.50;;
68944;SDS011;55984;48.790;8.990;2023-04-03T05:23:52;11.43;;;5.57;;
68944;SDS011;55984;48.790;8.990;2023-04-03T05:26:18;9.63;;;5.00;;
68944;SDS011;55984;48.790;8.990;2023-04-03T05:28:45;9.77;;;5.17;;
68944;SDS011;55984;48.790;8.990;2023-04-03T05:31:12;8.47;;;4.90;;
68944;SDS011;55984;48.790;8.990;2023-04-03T05:33:38;11.53;;;5.10;;
68944;SDS011;55984;48.790;8.990;2023-04-03T05:36:04;8.20;;;4.70;;
68944;SDS011;55984;48.790;8.990;2023-04-03T05:38:31;8.60;;;5.03;;
68944;SDS011;55984;48.790;8.990;2023-04-03T05:40:57;9.27;;;5.20;;
68944;SDS011;55984;48.790;8.990;2023-04-03T05:43:23;8.97;;;4.70;;
68944;SDS011;55984;48.790;8.990;2023-04-03T05:45:49;9.80;;;4.70;;
68944;SDS011;55984;48.790;8.990;2023-04-03T05:48:16;7.97;;;4.90;;
68944;SDS011;55984;48.790;8.990;2023-04-03T05:50:42;9.20;;;5.30;;
68944;SDS011;55984;48.790;8.990;2023-04-03T05:53:41;9.43;;;5.57;;
68944;SDS011;55984;48.790;8.990;2023-04-03T05:56:02;10.63;;;5.80;;
68944;SDS011;55984;48.790;8.990;2023-04-03T05:58:29;9.63;;;5.07;;
68944;SDS011;55984;48.790;8.990;2023-04-03T06:00:54;10.07;;;6.00;;
68944;SDS011;55984;48.790;8.990;2023-04-03T06:03:20;8.10;;;4.80;;
68944;SDS011;55984;48.790;8.990;2023-04-03T06:05:46;9.73;;;5.13;;
68944;SDS011;55984;48.790;8.990;2023-04-03T06:08:12;10.80;;;5.53;;
68944;SDS011;55984;48.790;8.990;2023-04-03T06:10:39;7.70;;;4.67;;
68944;SDS011;55984;48.790;8.990;2023-04-03T06:13:05;9.27;;;5.10;;
68944;SDS011;55984;48.790;8.990;2023-04-03T06:15:32;11.87;;;5.90;;
68944;SDS011;55984;48.790;8.990;2023-04-03T06:17:58;8.60;;;5.40;;
68944;SDS011;55984;48.790;8.990;2023-04-03T06:20:24;12.87;;;5.60;;
68944;SDS011;55984;48.790;8.990;2023-04-03T06:22:50;8.90;;;5.00;;
68944;SDS011;55984;48.790;8.990;2023-04-03T06:25:16;12.97;;;5.57;;
68944;SDS011;55984;48.790;8.990;2023-04-03T06:27:43;13.73;;;5.53;;
68944;SDS011;55984;48.790;8.990;2023-04-03T06:30:10;7.83;;;5.10;;
68944;SDS011;55984;48.790;8.990;2023-04-03T06:32:37;8.20;;;5.10;;
68944;SDS011;55984;48.790;8.990;2023-04-03T06:35:03;9.07;;;5.20;;
68944;SDS011;55984;48.790;8.990;2023-04-03T06:37:33;11.97;;;4.83;;
68944;SDS011;55984;48.790;8.990;2023-04-03T06:39:58;13.80;;;4.87;;
68944;SDS011;55984;48.790;8.990;2023-04-03T06:42:25;8.07;;;4.80;;
68944;SDS011;55984;48.790;8.990;2023-04-03T06:44:51;11.50;;;4.27;;
68944;SDS011;55984;48.790;8.990;2023-04-03T06:47:17;9.90;;;4.60;;
68944;SDS011;55984;48.790;8.990;2023-04-03T06:49:44;10.10;;;4.77;;
68944;SDS011;55984;48.790;8.990;2023-04-03T06:52:10;7.90;;;4.57;;
68944;SDS011;55984;48.790;8.990;2023-04-03T06:54:37;16.07;;;5.27;;
68944;SDS011;55984;48.790;8.990;2023-04-03T06:57:03;11.43;;;5.30;;
68944;SDS011;55984;48.790;8.990;2023-04-03T06:59:29;11.40;;;5.40;;
68944;SDS011;55984;48.790;8.990;2023-04-03T07:01:55;11.17;;;5.00;;
68944;SDS011;55984;48.790;8.990;2023-04-03T07:04:23;10.63;;;5.00;;
68944;SDS011;55984;48.790;8.990;2023-04-03T07:06:49;8.90;;;4.80;;
68944;SDS011;55984;48.790;8.990;2023-04-03T07:09:15;7.83;;;4.43;;
68944;SDS011;55984;48.790;8.990;2023-04-03T07:11:41;9.93;;;5.37;;
68944;SDS011;55984;48.790;8.990;2023-04-03T07:14:07;7.67;;;4.30;;
68944;SDS011;55984;48.790;8.990;2023-04-03T07:16:34;10.40;;;5.23;;
68944;SDS011;55984;48.790;8.990;2023-04-03T07:19:00;11.17;;;5.77;;
68944;SDS011;55984;48.790;8.990;2023-04-03T07:21:27;7.70;;;4.90;;
68944;SDS011;55984;48.790;8.990;2023-04-03T07:23:54;10.27;;;5.40;;
68944;SDS011;55984;48.790;8.990;2023-04-03T07:26:20;8.70;;;5.23;;
68944;SDS011;55984;48.790;8.990;2023-04-03T07:28:47;8.23;;;4.97;;
68944;SDS011;55984;48.790;8.990;2023-04-03T07:31:15;9.23;;;4.80;;
68944;SDS011;55984;48.790;8.990;2023-04-03T07:33:42;9.60;;;4.70;;
68944;SDS011;55984;48.790;8.990;2023-04-03T07:36:10;8.93;;;5.10;;
68944;SDS011;55984;48.790;8.990;2023-04-03T07:38:39;10.57;;;5.50;;
68944;SDS011;55984;48.790;8.990;2023-04-03T07:41:05;9.03;;;5.33;;
68944;SDS011;55984;48.790;8.990;2023-04-03T07:43:31;9.07;;;5.00;;
68944;SDS011;55984;48.790;8.990;2023-04-03T07:45:59;9.33;;;5.00;;
68944;SDS011;55984;48.790;8.990;2023-04-03T07:48:25;10.00;;;5.30;;
68944;SDS011;55984;48.790;8.990;2023-04-03T07:50:52;8.33;;;5.40;;
68944;SDS011;55984;48.790;8.990;2023-04-03T07:53:18;9.30;;;5.10;;
68944;SDS011;55984;48.790;8.990;2023-04-03T07:55:47;9.17;;;4.80;;
68944;SDS011;55984;48.790;8.990;2023-04-03T07:58:15;9.83;;;5.20;;
68944;SDS011;55984;48.790;8.990;2023-04-03T08:00:42;11.87;;;5.80;;
68944;SDS011;55984;48.790;8.990;2023-04-03T08:03:10;8.80;;;5.00;;
68944;SDS011;55984;48.790;8.990;2023-04-03T08:05:39;8.40;;;4.77;;
68944;SDS011;55984;48.790;8.990;2023-04-03T08:08:09;9.27;;;5.20;;
68944;SDS011;55984;48.790;8.990;2023-04-03T08:10:37;9.37;;;5.03;;
68944;SDS011;55984;48.790;8.990;2023-04-03T08:13:03;11.90;;;4.93;;
68944;SDS011;55984;48.790;8.990;2023-04-03T08:15:30;8.70;;;5.27;;
68944;SDS011;55984;48.790;8.990;2023-04-03T08:17:56;8.03;;;4.70;;
68944;SDS011;55984;48.790;8.990;2023-04-03T08:20:23;12.37;;;5.37;;
68944;SDS011;55984;48.790;8.990;2023-04-03T08:22:49;8.37;;;4.70;;
68944;SDS011;55984;48.790;8.990;2023-04-03T08:25:15;9.40;;;5.10;;
68944;SDS011;55984;48.790;8.990;2023-04-03T08:27:42;10.53;;;5.93;;
68944;SDS011;55984;48.790;8.990;2023-04-03T08:30:08;13.87;;;5.50;;
68944;SDS011;55984;48.790;8.990;2023-04-03T08:32:35;9.87;;;5.60;;
68944;SDS011;55984;48.790;8.990;2023-04-03T08:35:03;11.03;;;5.90;;
68944;SDS011;55984;48.790;8.990;2023-04-03T08:37:29;12.20;;;5.70;;
68944;SDS011;55984;48.790;8.990;2023-04-03T08:39:55;7.80;;;5.20;;
68944;SDS011;55984;48.790;8.990;2023-04-03T08:50:42;8.90;;;5.27;;
68944;SDS011;55984;48.790;8.990;2023-04-03T08:53:12;9.73;;;5.80;;
68944;SDS011;55984;48.790;8.990;2023-04-03T08:55:51;12.50;;;5.30;;
68944;SDS011;55984;48.790;8.990;2023-04-03T08:58:22;16.30;;;6.23;;
68944;SDS011;55984;48.790;8.990;2023-04-03T09:00:53;12.53;;;5.37;;
68944;SDS011;55984;48.790;8.990;2023-04-03T09:03:23;10.27;;;5.70;;
68944;SDS011;55984;48.790;8.990;2023-04-03T09:05:54;12.00;;;5.03;;
68944;SDS011;55984;48.790;8.990;2023-04-03T09:08:31;11.03;;;5.70;;
68944;SDS011;55984;48.790;8.990;2023-04-03T09:13:54;10.73;;;5.30;;
68944;SDS011;55984;48.790;8.990;2023-04-03T09:16:36;8.40;;;4.43;;
68944;SDS011;55984;48.790;8.990;2023-04-03T09:19:15;9.83;;;5.67;;
68944;SDS011;55984;48.790;8.990;2023-04-03T09:21:53;7.70;;;4.90;;
68944;SDS011;55984;48.790;8.990;2023-04-03T09:24:22;9.37;;;5.17;;
68944;SDS011;55984;48.790;8.990;2023-04-03T09:26:59;10.57;;;5.70;;
68944;SDS011;55984;48.790;8.990;2023-04-03T09:29:29;8.53;;;4.70;;
68944;SDS011;55984;48.790;8.990;2023-04-03T09:31:56;11.30;;;5.27;;
68944;SDS011;55984;48.790;8.990;2023-04-03T09:34:37;8.90;;;4.90;;
68944;SDS011;55984;48.790;8.990;2023-04-03T09:37:07;7.47;;;4.60;;
68944;SDS011;55984;48.790;8.990;2023-04-03T09:39:50;7.30;;;4.90;;
68944;SDS011;55984;48.790;8.990;2023-04-03T09:42:22;10.60;;;4.87;;
68944;SDS011;55984;48.790;8.990;2023-04-03T09:44:53;9.57;;;5.53;;
68944;SDS011;55984;48.790;8.990;2023-04-03T09:47:25;8.50;;;5.00;;
68944;SDS011;55984;48.790;8.990;2023-04-03T09:52:39;9.67;;;5.50;;
68944;SDS011;55984;48.790;8.990;2023-04-03T09:55:19;10.77;;;5.67;;
68944;SDS011;55984;48.790;8.990;2023-04-03T09:57:54;8.93;;;4.93;;
68944;SDS011;55984;48.790;8.990;2023-04-03T10:00:27;10.53;;;4.70;;
68944;SDS011;55984;48.790;8.990;2023-04-03T10:03:00;8.23;;;4.50;;
68944;SDS011;55984;48.790;8.990;2023-04-03T10:05:33;9.57;;;4.40;;
68944;SDS011;55984;48.790;8.990;2023-04-03T10:08:15;9.10;;;5.30;;
68944;SDS011;55984;48.790;8.990;2023-04-03T10:10:48;10.40;;;5.20;;
68944;SDS011;55984;48.790;8.990;2023-04-03T10:13:32;7.70;;;4.90;;
68944;SDS011;55984;48.790;8.990;2023-04-03T10:21:02;6.70;;;4.10;;
68944;SDS011;55984;48.790;8.990;2023-04-03T10:23:40;11.13;;;4.43;;
68944;SDS011;55984;48.790;8.990;2023-04-03T10:26:19;8.03;;;4.40;;
68944;SDS011;55984;48.790;8.990;2023-04-03T10:29:13;8.00;;;4.53;;
68944;SDS011;55984;48.790;8.990;2023-04-03T10:34:29;7.10;;;4.30;;
68944;SDS011;55984;48.790;8.990;2023-04-03T10:50:52;7.50;;;3.80;;
68944;SDS011;55984;48.790;8.990;2023-04-03T11:02:16;17.97;;;4.87;;
68944;SDS011;55984;48.790;8.990;2023-04-03T11:04:51;9.77;;;4.40;;
68944;SDS011;55984;48.790;8.990;2023-04-03T11:07:29;11.70;;;4.03;;
68944;SDS011;55984;48.790;8.990;2023-04-03T11:10:24;10.63;;;4.40;;
68944;SDS011;55984;48.790;8.990;2023-04-03T11:12:58;6.80;;;4.20;;
68944;SDS011;55984;48.790;8.990;2023-04-03T11:15:32;6.70;;;3.77;;
68944;SDS011;55984;48.790;8.990;2023-04-03T11:18:42;10.13;;;4.40;;
68944;SDS011;55984;48.790;8.990;2023-04-03T11:21:07;8.07;;;4.10;;
68944;SDS011;55984;48.790;8.990;2023-04-03T11:23:49;11.03;;;4.43;;
68944;SDS011;55984;48.790;8.990;2023-04-03T11:26:18;7.57;;;3.80;;
68944;SDS011;55984;48.790;8.990;2023-04-03T11:28:45;8.47;;;3.90;;
68944;SDS011;55984;48.790;8.990;2023-04-03T11:36:29;7.43;;;3.77;;
68944;SDS011;55984;48.790;8.990;2023-04-03T11:39:00;7.13;;;3.50;;
68944;SDS011;55984;48.790;8.990;2023-04-03T11:41:33;10.53;;;3.90;;
68944;SDS011;55984;48.790;8.990;2023-04-03T11:46:58;8.30;;;3.40;;
68944;SDS011;55984;48.790;8.990;2023-04-03T12:08:30;6.70;;;4.03;;
68944;SDS011;55984;48.790;8.990;2023-04-03T12:13:37;7.67;;;3.67;;
68944;SDS011;55984;48.790;8.990;2023-04-03T12:16:26;6.50;;;3.90;;
68944;SDS011;55984;48.790;8.990;2023-04-03T12:19:00;5.93;;;3.70;;
68944;SDS011;55984;48.790;8.990;2023-04-03T12:26:51;7.77;;;3.70;;
68944;SDS011;55984;48.790;8.990;2023-04-03T12:32:14;10.97;;;3.80;;
68944;SDS011;55984;48.790;8.990;2023-04-03T12:43:12;5.50;;;3.27;;
68944;SDS011;55984;48.790;8.990;2023-04-03T12:48:34;6.30;;;3.33;;
68944;SDS011;55984;48.790;8.990;2023-04-03T12:51:04;7.27;;;3.80;;
68944;SDS011;55984;48.790;8.990;2023-04-03T12:53:32;7.20;;;3.43;;
68944;SDS011;55984;48.790;8.990;2023-04-03T12:56:22;5.80;;;3.23;;
68944;SDS011;55984;48.790;8.990;2023-04-03T12:58:51;6.23;;;3.43;;
68944;SDS011;55984;48.790;8.990;2023-04-03T13:01:22;5.33;;;3.53;;
68944;SDS011;55984;48.790;8.990;2023-04-03T13:03:53;6.10;;;3.43;;
68944;SDS011;55984;48.790;8.990;2023-04-03T13:06:22;5.73;;;3.50;;
68944;SDS011;55984;48.790;8.990;2023-04-03T13:08:55;5.67;;;3.50;;
68944;SDS011;55984;48.790;8.990;2023-04-03T13:11:36;6.83;;;3.30;;
68944;SDS011;55984;48.790;8.990;2023-04-03T13:14:14;5.97;;;3.80;;
68944;SDS011;55984;48.790;8.990;2023-04-03T13:16:42;5.03;;;3.20;;
68944;SDS011;55984;48.790;8.990;2023-04-03T13:19:20;10.17;;;3.70;;
68944;SDS011;55984;48.790;8.990;2023-04-03T13:21:49;7.40;;;3.77;;
68944;SDS011;55984;48.790;8.990;2023-04-03T13:24:22;7.87;;;4.00;;
68944;SDS011;55984;48.790;8.990;2023-04-03T13:26:48;8.47;;;3.90;;
68944;SDS011;55984;48.790;8.990;2023-04-03T13:29:19;8.03;;;3.60;;
68944;SDS011;55984;48.790;8.990;2023-04-03T13:31:52;22.90;;;3.67;;
68944;SDS011;55984;48.790;8.990;2023-04-03T13:34:21;6.47;;;3.67;;
68944;SDS011;55984;48.790;8.990;2023-04-03T13:36:56;6.30;;;3.50;;
68944;SDS011;55984;48.790;8.990;2023-04-03T13:41:55;6.33;;;3.53;;
68944;SDS011;55984;48.790;8.990;2023-04-03T13:47:17;5.97;;;3.40;;
68944;SDS011;55984;48.790;8.990;2023-04-03T13:50:03;7.07;;;3.60;;
68944;SDS011;55984;48.790;8.990;2023-04-03T13:52:41;8.70;;;3.67;;
68944;SDS011;55984;48.790;8.990;2023-04-03T13:55:17;6.17;;;3.43;;
68944;SDS011;55984;48.790;8.990;2023-04-03T14:00:37;6.90;;;3.67;;
68944;SDS011;55984;48.790;8.990;2023-04-03T14:03:24;5.90;;;3.40;;
68944;SDS011;55984;48.790;8.990;2023-04-03T14:05:54;10.13;;;3.80;;
68944;SDS011;55984;48.790;8.990;2023-04-03T14:08:20;7.23;;;3.63;;
68944;SDS011;55984;48.790;8.990;2023-04-03T14:10:47;5.60;;;3.40;;
68944;SDS011;55984;48.790;8.990;2023-04-03T14:13:15;9.43;;;3.60;;
68944;SDS011;55984;48.790;8.990;2023-04-03T14:15:43;5.27;;;3.30;;
68944;SDS011;55984;48.790;8.990;2023-04-03T14:18:12;6.33;;;3.77;;
68944;SDS011;55984;48.790;8.990;2023-04-03T14:20:39;6.30;;;3.43;;
68944;SDS011;55984;48.790;8.990;2023-04-03T14:23:05;5.10;;;3.17;;
68944;SDS011;55984;48.790;8.990;2023-04-03T14:25:32;5.60;;;3.50;;
68944;SDS011;55984;48.790;8.990;2023-04-03T14:27:58;11.97;;;4.70;;
68944;SDS011;55984;48.790;8.990;2023-04-03T14:30:29;5.30;;;3.40;;
68944;SDS011;55984;48.790;8.990;2023-04-03T14:32:57;6.87;;;3.67;;
68944;SDS011;55984;48.790;8.990;2023-04-03T14:35:24;7.13;;;3.70;;
68944;SDS011;55984;48.790;8.990;2023-04-03T14:37:50;8.40;;;4.37;;
68944;SDS011;55984;48.790;8.990;2023-04-03T14:40:19;8.50;;;3.77;;
68944;SDS011;55984;48.790;8.990;2023-04-03T14:42:49;6.30;;;3.40;;
68944;SDS011;55984;48.790;8.990;2023-04-03T14:45:16;7.20;;;3.40;;
68944;SDS011;55984;48.790;8.990;2023-04-03T14:47:53;5.30;;;3.57;;
68944;SDS011;55984;48.790;8.990;2023-04-03T14:50:22;6.67;;;3.93;;
68944;SDS011;55984;48.790;8.990;2023-04-03T14:52:51;19.67;;;6.00;;
68944;SDS011;55984;48.790;8.990;2023-04-03T14:55:20;8.20;;;3.80;;
68944;SDS011;55984;48.790;8.990;2023-04-03T14:57:48;6.53;;;3.70;;
68944;SDS011;55984;48.790;8.990;2023-04-03T15:00:15;6.30;;;3.63;;
68944;SDS011;55984;48.790;8.990;2023-04-03T15:02:46;7.40;;;3.97;;
68944;SDS011;55984;48.790;8.990;2023-04-03T15:05:13;5.67;;;3.40;;
68944;SDS011;55984;48.790;8.990;2023-04-03T15:07:40;6.73;;;3.53;;
68944;SDS011;55984;48.790;8.990;2023-04-03T15:10:21;9.20;;;3.73;;
68944;SDS011;55984;48.790;8.990;2023-04-03T15:12:52;8.17;;;3.80;;
68944;SDS011;55984;48.790;8.990;2023-04-03T15:15:18;8.47;;;3.57;;
68944;SDS011;55984;48.790;8.990;2023-04-03T15:17:46;6.50;;;3.70;;
68944;SDS011;55984;48.790;8.990;2023-04-03T15:20:16;5.70;;;3.43;;
68944;SDS011;55984;48.790;8.990;2023-04-03T15:22:44;5.70;;;3.30;;
68944;SDS011;55984;48.790;8.990;2023-04-03T15:25:11;6.27;;;3.30;;
68944;SDS011;55984;48.790;8.990;2023-04-03T15:27:37;8.20;;;3.43;;
68944;SDS011;55984;48.790;8.990;2023-04-03T15:30:04;9.27;;;3.87;;
68944;SDS011;55984;48.790;8.990;2023-04-03T15:32:31;9.50;;;3.80;;
68944;SDS011;55984;48.790;8.990;2023-04-03T15:34:58;7.23;;;3.63;;
68944;SDS011;55984;48.790;8.990;2023-04-03T15:37:24;6.20;;;3.70;;
68944;SDS011;55984;48.790;8.990;2023-04-03T15:39:50;6.93;;;3.27;;
68944;SDS011;55984;48.790;8.990;2023-04-03T15:42:16;5.93;;;3.33;;
68944;SDS011;55984;48.790;8.990;2023-04-03T15:44:42;4.63;;;3.00;;
68944;SDS011;55984;48.790;8.990;2023-04-03T15:47:08;7.87;;;3.60;;
68944;SDS011;55984;48.790;8.990;2023-04-03T15:49:34;7.70;;;3.87;;
68944;SDS011;55984;48.790;8.990;2023-04-03T15:52:00;8.30;;;4.47;;
68944;SDS011;55984;48.790;8.990;2023-04-03T15:54:27;7.60;;;3.97;;
68944;SDS011;55984;48.790;8.990;2023-04-03T15:56:54;6.83;;;3.33;;
68944;SDS011;55984;48.790;8.990;2023-04-03T15:59:20;5.40;;;3.07;;
68944;SDS011;55984;48.790;8.990;2023-04-03T16:01:46;8.50;;;3.90;;
68944;SDS011;55984;48.790;8.990;2023-04-03T16:04:13;18.70;;;4.50;;
68944;SDS011;55984;48.790;8.990;2023-04-03T16:06:40;10.03;;;4.00;;
68944;SDS011;55984;48.790;8.990;2023-04-03T16:09:07;6.03;;;3.67;;
68944;SDS011;55984;48.790;8.990;2023-04-03T16:11:33;5.90;;;3.70;;
68944;SDS011;55984;48.790;8.990;2023-04-03T16:14:00;8.17;;;3.50;;
68944;SDS011;55984;48.790;8.990;2023-04-03T16:16:27;8.90;;;3.90;;
68944;SDS011;55984;48.790;8.990;2023-04-03T16:18:53;6.20;;;3.37;;
68944;SDS011;55984;48.790;8.990;2023-04-03T16:21:21;7.70;;;3.30;;
68944;SDS011;55984;48.790;8.990;2023-04-03T16:23:50;9.33;;;3.60;;
68944;SDS011;55984;48.790;8.990;2023-04-03T16:26:16;6.87;;;3.63;;
68944;SDS011;55984;48.790;8.990;2023-04-03T16:28:42;6.30;;;3.67;;
68944;SDS011;55984;48.790;8.990;2023-04-03T16:31:09;4.30;;;3.30;;
68944;SDS011;55984;48.790;8.990;2023-04-03T16:33:35;5.67;;;3.83;;
68944;SDS011;55984;48.790;8.990;2023-04-03T16:36:02;5.73;;;3.50;;
68944;SDS011;55984;48.790;8.990;2023-04-03T16:38:29;6.10;;;3.83;;
68944;SDS011;55984;48.790;8.990;2023-04-03T16:40:55;6.03;;;3.43;;
68944;SDS011;55984;48.790;8.990;2023-04-03T16:43:24;7.20;;;4.13;;
68944;SDS011;55984;48.790;8.990;2023-04-03T16:45:50;5.80;;;3.37;;
68944;SDS011;55984;48.790;8.990;2023-04-03T16:48:16;6.23;;;4.00;;
68944;SDS011;55984;48.790;8.990;2023-04-03T16:50:42;7.80;;;3.80;;
68944;SDS011;55984;48.790;8.990;2023-04-03T16:53:12;5.40;;;3.23;;
68944;SDS011;55984;48.790;8.990;2023-04-03T16:55:39;10.73;;;3.90;;
68944;SDS011;55984;48.790;8.990;2023-04-03T16:58:05;4.97;;;3.60;;
68944;SDS011;55984;48.790;8.990;2023-04-03T17:00:32;7.67;;;4.37;;
68944;SDS011;55984;48.790;8.990;2023-04-03T17:02:59;7.43;;;4.07;;